< < Back
Terminal Aerodrome Forecast


Current Version              Previous Versions:   1  2  3  4  5  6  7  8  9  

Terminal Aerodrome Forecast

683
FTUS42 KGSP 011000 AAA
TAFGSP
TAF AMD
KGSP 011033Z 0111/0206 22003KT P6SM BKN250
      TEMPO 0111/0113 5SM BR
     FM011300 24003KT P6SM SCT250
     FM011600 24006KT P6SM SCT060
     FM012100 21003KT P6SM BKN060
     FM020100 22003KT P6SM SCT060=

Latest METAR

943
SAUS70 KWBC 011400 RRT
MTRGSP
METAR KGSP 011353Z 24004KT 10SM CLR 28/22 A3013 RMK AO2 SLP191
T02780222


USA.gov is the U.S. government's official web portal to all federal, state and local government web resources and services.